createdAt,value
2022-11-05T00:00:37.029Z,49.40
2022-11-05T00:03:23.226Z,50.63
2022-11-05T00:06:11.339Z,42.65
2022-11-05T00:08:57.500Z,44.40
2022-11-05T00:11:44.044Z,50.13
2022-11-05T00:14:29.513Z,49.95
2022-11-05T00:16:56.176Z,51.88
2022-11-05T00:19:22.772Z,48.95
2022-11-05T00:22:07.516Z,49.00
2022-11-05T00:24:52.839Z,46.05
2022-11-05T00:27:19.399Z,44.92
2022-11-05T00:29:45.957Z,48.63
2022-11-05T00:32:12.531Z,49.38
2022-11-05T00:34:39.069Z,42.90
2022-11-05T00:37:05.800Z,48.97
2022-11-05T00:39:32.352Z,48.25
2022-11-05T00:42:17.674Z,42.75
2022-11-05T00:45:02.674Z,42.45
2022-11-05T00:47:52.085Z,46.10
2022-11-05T00:50:20.525Z,47.38
2022-11-05T00:52:59.312Z,43.42
2022-11-05T00:55:38.098Z,41.80
2022-11-05T00:58:10.228Z,45.83
2022-11-05T01:00:38.883Z,43.78
2022-11-05T01:03:09.045Z,41.75
2022-11-05T01:05:43.180Z,42.65
2022-11-05T01:08:10.906Z,44.95
2022-11-05T01:10:42.470Z,40.83
2022-11-05T01:13:12.977Z,47.13
2022-11-05T01:15:41.228Z,48.47
2022-11-05T01:18:08.380Z,44.08
2022-11-05T01:20:35.004Z,50.55
2022-11-05T01:23:01.620Z,119.60
2022-11-05T01:25:28.522Z,47.20
2022-11-05T01:27:55.251Z,52.50
2022-11-05T01:30:23.002Z,54.85
2022-11-05T01:32:49.611Z,45.90
2022-11-05T01:35:17.828Z,48.42
2022-11-05T01:37:45.172Z,44.28
2022-11-05T01:40:14.875Z,45.67
2022-11-05T01:42:41.608Z,47.38
2022-11-05T01:45:13.041Z,53.50
2022-11-05T01:47:47.888Z,46.65
2022-11-05T01:50:38.996Z,50.63
2022-11-05T01:53:14.219Z,53.40
2022-11-05T01:55:45.983Z,50.28
2022-11-05T01:58:17.369Z,55.95
2022-11-05T02:00:44.220Z,55.83
2022-11-05T02:03:13.291Z,54.85
2022-11-05T02:05:41.826Z,46.65
2022-11-05T02:08:16.522Z,53.13
2022-11-05T02:10:44.792Z,55.28
2022-11-05T02:13:11.638Z,49.72
2022-11-05T02:16:00.361Z,45.00
2022-11-05T02:18:41.273Z,41.85
2022-11-05T02:21:38.017Z,45.13
2022-11-05T02:24:44.725Z,43.40
2022-11-05T02:27:14.088Z,42.47
2022-11-05T02:29:55.726Z,40.95
2022-11-05T02:32:25.386Z,40.50
2022-11-05T02:35:03.862Z,42.08
2022-11-05T02:37:36.338Z,49.20
2022-11-05T02:40:20.710Z,48.27
2022-11-05T02:43:15.044Z,47.00
2022-11-05T02:45:57.445Z,47.78
2022-11-05T02:48:29.405Z,44.65
2022-11-05T02:51:04.653Z,48.58
2022-11-05T02:53:45.268Z,44.47
2022-11-05T02:56:22.236Z,47.88
2022-11-05T02:58:48.834Z,50.63
2022-11-05T03:01:15.569Z,49.90
2022-11-05T03:03:43.508Z,53.22
2022-11-05T03:06:38.064Z,56.95
2022-11-05T03:09:13.808Z,56.95
2022-11-05T03:12:02.111Z,62.55
2022-11-05T03:14:51.186Z,62.63
2022-11-05T03:17:28.838Z,63.67
2022-11-05T03:19:58.378Z,74.22
2022-11-05T03:22:31.032Z,55.65
2022-11-05T03:25:02.610Z,60.25
2022-11-05T03:27:37.343Z,58.17
2022-11-05T03:30:09.748Z,56.55
2022-11-05T03:32:40.687Z,56.85
2022-11-05T03:35:23.331Z,46.80
2022-11-05T03:37:56.902Z,49.50
2022-11-05T03:40:24.916Z,49.08
2022-11-05T03:42:57.007Z,50.88
2022-11-05T03:45:36.350Z,58.90
2022-11-05T03:48:05.414Z,48.75
2022-11-05T03:50:54.084Z,56.67
2022-11-05T03:53:28.598Z,49.42
2022-11-05T03:56:02.033Z,58.10
2022-11-05T04:00:56.033Z,44.22
2022-11-05T04:03:22.628Z,51.53
2022-11-05T04:06:09.641Z,50.13
2022-11-05T04:08:55.114Z,81.68
2022-11-05T04:11:40.052Z,55.38
2022-11-05T04:14:06.669Z,60.97
2022-11-05T04:16:51.814Z,59.40
2022-11-05T04:19:38.332Z,54.75
2022-11-05T04:22:25.211Z,55.03
2022-11-05T04:24:51.754Z,85.07
2022-11-05T04:27:18.306Z,114.03
2022-11-05T04:30:03.213Z,96.32
2022-11-05T04:32:29.767Z,73.65
2022-11-05T04:34:56.343Z,80.22
2022-11-05T04:37:22.901Z,66.18
2022-11-05T04:39:49.496Z,51.03
2022-11-05T04:42:16.077Z,42.03
2022-11-05T04:44:42.601Z,48.00
2022-11-05T04:47:09.188Z,54.53
2022-11-05T04:49:35.763Z,49.63
2022-11-05T04:52:02.302Z,47.70
2022-11-05T04:54:28.868Z,52.95
2022-11-05T04:56:55.428Z,50.28
2022-11-05T04:59:22.153Z,57.80
2022-11-05T05:01:52.760Z,49.67
2022-11-05T05:04:19.490Z,49.67
2022-11-05T05:06:46.100Z,49.75
2022-11-05T05:09:12.690Z,45.75
2022-11-05T05:11:39.289Z,59.35
2022-11-05T05:14:05.881Z,56.00
2022-11-05T05:16:32.498Z,61.58
2022-11-05T05:18:59.067Z,82.85
2022-11-05T05:21:41.022Z,66.38
2022-11-05T05:24:13.047Z,59.50
2022-11-05T05:26:42.481Z,68.88
2022-11-05T05:29:10.137Z,92.80
2022-11-05T05:31:36.957Z,102.25
2022-11-05T05:34:04.621Z,87.22
2022-11-05T05:36:31.734Z,61.75
2022-11-05T05:38:58.618Z,67.68
2022-11-05T05:41:25.266Z,77.57
2022-11-05T05:43:52.144Z,67.82
2022-11-05T05:46:19.865Z,56.28
2022-11-05T05:48:52.419Z,51.97
2022-11-05T05:51:19.487Z,40.13
2022-11-05T05:53:46.232Z,44.20
2022-11-05T05:56:15.137Z,43.83
2022-11-05T05:58:42.188Z,44.72
2022-11-05T06:01:18.254Z,50.97
2022-11-05T06:03:45.107Z,50.38
2022-11-05T06:06:13.591Z,52.20
2022-11-05T06:08:40.489Z,50.25
2022-11-05T06:11:07.877Z,55.53
2022-11-05T06:13:35.959Z,48.47
2022-11-05T06:16:07.552Z,58.42
2022-11-05T06:18:35.135Z,64.53
2022-11-05T06:21:07.406Z,71.63
2022-11-05T06:23:35.781Z,95.38
2022-11-05T06:26:07.701Z,87.10
2022-11-05T06:28:35.302Z,67.15
2022-11-05T06:31:02.015Z,65.05
2022-11-05T06:33:28.644Z,94.03
2022-11-05T06:35:59.161Z,56.75
2022-11-05T06:38:25.840Z,68.20
2022-11-05T06:40:52.448Z,59.63
2022-11-05T06:43:19.027Z,66.07
2022-11-05T06:45:45.593Z,62.63
2022-11-05T06:48:12.150Z,82.93
2022-11-05T06:50:38.748Z,68.03
2022-11-05T06:53:05.520Z,61.42
2022-11-05T06:55:32.352Z,75.00
2022-11-05T06:57:59.060Z,69.10
2022-11-05T07:00:25.740Z,70.32
2022-11-05T07:02:52.464Z,60.30
2022-11-05T07:05:19.020Z,59.17
2022-11-05T07:07:45.909Z,51.10
2022-11-05T07:10:16.371Z,48.40
2022-11-05T07:12:43.438Z,45.65
2022-11-05T07:15:11.808Z,48.50
2022-11-05T07:17:39.732Z,57.63
2022-11-05T07:20:08.115Z,51.70
2022-11-05T07:22:35.687Z,46.13
2022-11-05T07:25:02.302Z,43.08
2022-11-05T07:27:29.056Z,57.28
2022-11-05T07:29:55.610Z,58.58
2022-11-05T07:32:22.220Z,50.17
2022-11-05T07:34:48.797Z,55.75
2022-11-05T07:37:16.765Z,45.17
2022-11-05T07:39:43.477Z,40.45
2022-11-05T07:42:13.761Z,43.22
2022-11-05T07:44:40.795Z,52.03
2022-11-05T07:47:07.826Z,41.95
2022-11-05T07:49:34.378Z,40.83
2022-11-05T07:52:01.002Z,50.33
2022-11-05T07:54:27.708Z,38.65
2022-11-05T07:56:54.299Z,42.50
2022-11-05T07:59:20.912Z,44.72
2022-11-05T08:01:47.756Z,34.28
2022-11-05T08:04:14.457Z,45.67
2022-11-05T08:06:41.117Z,38.47
2022-11-05T08:09:07.962Z,41.90
2022-11-05T08:11:35.903Z,44.83
2022-11-05T08:14:02.834Z,48.20
2022-11-05T08:16:29.492Z,43.05
2022-11-05T08:18:56.132Z,41.28
2022-11-05T08:21:22.744Z,41.38
2022-11-05T08:23:49.306Z,44.42
2022-11-05T08:26:16.043Z,36.50
2022-11-05T08:28:42.669Z,45.22
2022-11-05T08:31:09.240Z,42.63
2022-11-05T08:33:35.922Z,34.58
2022-11-05T08:36:04.596Z,35.78
2022-11-05T08:38:31.470Z,39.17
2022-11-05T08:40:58.697Z,40.83
2022-11-05T08:43:25.640Z,39.95
2022-11-05T08:45:52.461Z,43.95
2022-11-05T08:48:20.957Z,35.33
2022-11-05T08:50:49.231Z,39.25
2022-11-05T08:53:16.350Z,37.97
2022-11-05T08:55:44.020Z,45.60
2022-11-05T08:58:12.880Z,43.53
2022-11-05T09:00:40.253Z,35.38
2022-11-05T09:03:08.837Z,36.95
2022-11-05T09:05:39.373Z,39.03
2022-11-05T09:08:07.691Z,42.15
2022-11-05T09:10:34.667Z,37.53
2022-11-05T09:13:01.663Z,39.90
2022-11-05T09:15:29.476Z,42.28
2022-11-05T09:17:56.924Z,42.25
2022-11-05T09:20:24.998Z,57.95
2022-11-05T09:22:52.294Z,62.33
2022-11-05T09:25:19.169Z,37.72
2022-11-05T09:27:45.955Z,41.70
2022-11-05T09:30:13.890Z,46.15
2022-11-05T09:32:40.876Z,58.75
2022-11-05T09:35:08.830Z,44.90
2022-11-05T09:37:37.458Z,50.78
2022-11-05T09:40:04.855Z,52.35
2022-11-05T09:42:46.880Z,42.83
2022-11-05T09:45:24.476Z,40.13
2022-11-05T09:48:01.545Z,42.88
2022-11-05T09:50:40.633Z,50.97
2022-11-05T09:53:10.256Z,44.28
2022-11-05T09:55:41.737Z,38.15
2022-11-05T09:58:34.625Z,37.63
2022-11-05T10:01:04.538Z,36.58
2022-11-05T10:03:34.457Z,35.30
2022-11-05T10:06:09.348Z,35.95
2022-11-05T10:08:43.316Z,34.08
2022-11-05T10:11:16.740Z,33.30
2022-11-05T10:13:56.405Z,37.35
2022-11-05T10:16:27.969Z,35.58
2022-11-05T10:19:00.761Z,32.97
2022-11-05T10:21:51.446Z,32.38
2022-11-05T10:24:20.296Z,36.35
2022-11-05T10:26:50.676Z,32.63
2022-11-05T10:29:25.832Z,30.52
2022-11-05T10:31:55.156Z,34.40
2022-11-05T10:34:26.637Z,37.15
2022-11-05T10:36:54.555Z,30.13
2022-11-05T10:39:21.905Z,36.38
2022-11-05T10:42:06.598Z,36.00
2022-11-05T10:44:36.105Z,32.38
2022-11-05T10:47:27.486Z,34.33
2022-11-05T10:50:01.813Z,32.03
2022-11-05T10:52:34.265Z,40.35
2022-11-05T10:55:11.321Z,36.28
2022-11-05T10:57:40.651Z,35.30
2022-11-05T11:00:16.813Z,39.80
2022-11-05T11:02:49.430Z,43.65
2022-11-05T11:05:28.739Z,44.43
2022-11-05T11:08:00.862Z,37.05
2022-11-05T11:10:28.976Z,39.40
2022-11-05T11:12:57.189Z,37.03
2022-11-05T11:15:35.301Z,39.30
2022-11-05T11:18:40.019Z,36.50
2022-11-05T11:21:12.793Z,37.78
2022-11-05T11:23:41.727Z,33.05
2022-11-05T11:26:10.489Z,42.53
2022-11-05T11:28:47.560Z,34.88
2022-11-05T11:31:27.075Z,34.00
2022-11-05T11:34:02.713Z,40.88
2022-11-05T11:36:36.338Z,29.70
2022-11-05T11:39:06.440Z,32.83
2022-11-05T11:41:42.108Z,41.92
2022-11-05T11:44:17.807Z,28.70
2022-11-05T11:46:49.855Z,35.15
2022-11-05T11:49:52.109Z,36.45
2022-11-05T11:52:27.729Z,32.55
2022-11-05T11:55:13.024Z,28.40
2022-11-05T11:57:49.167Z,37.72
2022-11-05T12:00:17.561Z,31.08
2022-11-05T12:03:02.092Z,32.70
2022-11-05T12:05:36.464Z,40.25
2022-11-05T12:08:13.582Z,32.33
2022-11-05T12:10:51.776Z,32.42
2022-11-05T12:13:21.178Z,31.52
2022-11-05T12:16:00.205Z,32.92
2022-11-05T12:18:42.469Z,29.23
2022-11-05T12:21:51.849Z,37.95
2022-11-05T12:24:28.186Z,31.42
2022-11-05T12:27:18.453Z,34.95
2022-11-05T12:29:51.352Z,35.92
2022-11-05T12:32:37.555Z,34.17
2022-11-05T12:35:19.488Z,38.85
2022-11-05T12:38:12.035Z,38.03
2022-11-05T12:40:59.038Z,31.08
2022-11-05T12:43:59.046Z,33.90
2022-11-05T12:46:41.428Z,36.10
2022-11-05T12:49:15.861Z,27.58
2022-11-05T12:51:57.595Z,27.02
2022-11-05T12:55:03.431Z,29.10
2022-11-05T12:57:32.750Z,24.15
2022-11-05T13:00:13.825Z,29.90
2022-11-05T13:02:40.858Z,28.40
2022-11-05T13:05:17.233Z,27.95
2022-11-05T13:07:58.322Z,26.02
2022-11-05T13:10:34.437Z,23.67
2022-11-05T13:13:38.802Z,28.30
2022-11-05T13:18:46.347Z,20.17
2022-11-05T13:21:14.154Z,14.93
2022-11-05T13:24:37.909Z,18.90
2022-11-05T13:27:27.215Z,20.50
2022-11-05T13:30:02.030Z,19.13
2022-11-05T13:32:36.463Z,18.33
2022-11-05T13:35:07.616Z,16.80
2022-11-05T13:38:01.120Z,14.55
2022-11-05T13:40:57.116Z,16.85
2022-11-05T13:43:51.193Z,16.77
2022-11-05T13:49:03.035Z,20.20
2022-11-05T13:51:39.175Z,33.90
2022-11-05T13:54:31.260Z,21.08
2022-11-05T13:57:14.201Z,19.25
2022-11-05T14:00:12.108Z,31.77
2022-11-05T14:02:50.419Z,19.45
2022-11-05T14:05:36.672Z,20.42
2022-11-05T14:08:12.695Z,23.70
2022-11-05T14:10:44.799Z,19.88
2022-11-05T14:13:42.487Z,24.00
2022-11-05T14:16:10.757Z,23.05
2022-11-05T14:18:39.331Z,21.67
2022-11-05T14:21:26.532Z,20.65
2022-11-05T14:23:57.856Z,22.08
2022-11-05T14:26:33.444Z,21.45
2022-11-05T14:29:03.085Z,23.77
2022-11-05T14:32:08.296Z,25.40
2022-11-05T14:35:13.496Z,26.08
2022-11-05T14:37:41.883Z,26.63
2022-11-05T14:40:30.026Z,31.42
2022-11-05T14:43:03.123Z,28.30
2022-11-05T14:46:03.740Z,21.33
2022-11-05T14:48:38.261Z,22.35
2022-11-05T14:51:23.226Z,25.52
2022-11-05T14:53:50.373Z,24.25
2022-11-05T14:56:19.232Z,36.10
2022-11-05T14:58:46.770Z,29.30
2022-11-05T15:01:13.532Z,27.33
2022-11-05T15:03:45.951Z,29.73
2022-11-05T15:06:20.278Z,34.33
2022-11-05T15:08:49.723Z,32.65
2022-11-05T15:11:22.159Z,31.42
2022-11-05T15:13:54.796Z,37.67
2022-11-05T15:16:48.746Z,32.23
2022-11-05T15:19:37.340Z,35.10
2022-11-05T15:22:13.625Z,36.15
2022-11-05T15:24:42.904Z,36.90
2022-11-05T15:27:29.425Z,33.75
2022-11-05T15:29:57.301Z,35.10
2022-11-05T15:32:25.883Z,33.05
2022-11-05T15:34:56.542Z,33.47
2022-11-05T15:37:25.765Z,35.75
2022-11-05T15:39:54.852Z,40.97
2022-11-05T15:42:24.643Z,36.00
2022-11-05T15:44:57.143Z,49.58
2022-11-05T15:47:31.840Z,42.15
2022-11-05T15:50:05.683Z,36.47
2022-11-05T15:52:42.442Z,42.60
2022-11-05T15:55:15.166Z,45.15
2022-11-05T15:57:50.374Z,46.33
2022-11-05T16:00:22.432Z,48.40
2022-11-05T16:02:56.229Z,51.08
2022-11-05T16:05:25.999Z,48.45
2022-11-05T16:07:53.263Z,52.78
2022-11-05T16:10:23.555Z,41.78
2022-11-05T16:12:50.882Z,47.05
2022-11-05T16:15:22.452Z,47.22
2022-11-05T16:17:57.713Z,58.72
2022-11-05T16:20:36.232Z,49.25
2022-11-05T16:23:22.186Z,55.85
2022-11-05T16:25:49.676Z,45.50
2022-11-05T16:28:25.159Z,44.38
2022-11-05T16:31:03.808Z,42.03
2022-11-05T16:33:49.921Z,46.63
2022-11-05T16:36:17.243Z,76.10
2022-11-05T16:38:44.734Z,56.22
2022-11-05T16:41:16.186Z,58.45
2022-11-05T16:44:02.537Z,64.93
2022-11-05T16:46:30.441Z,89.93
2022-11-05T16:48:57.946Z,86.85
2022-11-05T16:51:29.415Z,96.25
2022-11-05T16:53:56.238Z,88.65
2022-11-05T16:56:23.234Z,92.88
2022-11-05T16:58:50.770Z,92.72
2022-11-05T17:01:23.379Z,96.78
2022-11-05T17:03:52.248Z,91.63
2022-11-05T17:06:21.326Z,84.53
2022-11-05T17:08:49.268Z,88.40
2022-11-05T17:11:18.350Z,86.50
2022-11-05T17:13:45.931Z,87.88
2022-11-05T17:16:15.452Z,83.55
2022-11-05T17:18:43.330Z,79.05
2022-11-05T17:21:12.865Z,82.88
2022-11-05T17:23:40.789Z,80.90
2022-11-05T17:26:15.018Z,77.53
2022-11-05T17:28:41.904Z,95.78
2022-11-05T17:31:12.411Z,113.50
2022-11-05T17:33:41.232Z,97.22
2022-11-05T17:36:10.576Z,89.80
2022-11-05T17:38:37.479Z,85.68
2022-11-05T17:41:14.848Z,88.93
2022-11-05T17:43:41.941Z,97.47
2022-11-05T17:46:12.570Z,95.28
2022-11-05T17:48:39.870Z,90.30
2022-11-05T17:51:11.586Z,75.05
2022-11-05T17:53:39.048Z,65.78
2022-11-05T17:56:20.119Z,58.50
2022-11-05T17:58:51.536Z,56.67
2022-11-05T18:01:33.065Z,45.10
2022-11-05T18:04:05.387Z,45.10
2022-11-05T18:06:39.647Z,43.55
2022-11-05T18:09:08.219Z,50.03
2022-11-05T18:11:36.678Z,40.47
2022-11-05T18:14:04.176Z,50.03
2022-11-05T18:16:37.759Z,47.10
2022-11-05T18:19:04.882Z,51.63
2022-11-05T18:21:31.817Z,52.75
2022-11-05T18:23:58.674Z,55.47
2022-11-05T18:26:28.050Z,52.17
2022-11-05T18:28:54.854Z,47.10
2022-11-05T18:31:23.853Z,53.17
2022-11-05T18:33:53.134Z,53.22
2022-11-05T18:36:25.165Z,58.10
2022-11-05T18:38:53.345Z,46.35
2022-11-05T18:41:23.359Z,48.97
2022-11-05T18:43:50.234Z,54.60
2022-11-05T18:46:43.137Z,52.85
2022-11-05T18:49:07.011Z,66.78
2022-11-05T18:51:36.110Z,78.78
2022-11-05T18:54:14.129Z,51.90
2022-11-05T18:56:48.130Z,56.88
2022-11-05T19:02:05.440Z,52.15
2022-11-05T19:04:35.254Z,53.63
2022-11-05T19:07:05.121Z,71.22
2022-11-05T19:09:34.525Z,60.53
2022-11-05T19:12:02.171Z,62.72
2022-11-05T19:14:30.449Z,69.85
2022-11-05T19:16:58.295Z,62.30
2022-11-05T19:19:27.447Z,69.22
2022-11-05T19:21:58.522Z,69.72
2022-11-05T19:24:27.092Z,60.95
2022-11-05T19:26:56.594Z,83.40
2022-11-05T19:29:26.077Z,111.75
2022-11-05T19:31:58.001Z,89.68
2022-11-05T19:34:25.019Z,68.70
2022-11-05T19:36:51.850Z,62.78
2022-11-05T19:39:24.302Z,58.67
2022-11-05T19:41:51.226Z,60.45
2022-11-05T19:44:18.154Z,62.00
2022-11-05T19:46:47.509Z,54.63
2022-11-05T19:49:17.379Z,61.65
2022-11-05T19:51:46.492Z,58.72
2022-11-05T19:54:13.295Z,78.10
2022-11-05T19:56:40.231Z,68.40
2022-11-05T19:59:07.406Z,59.45
2022-11-05T20:01:34.668Z,57.95
2022-11-05T20:04:02.688Z,62.40
2022-11-05T20:06:33.215Z,52.17
2022-11-05T20:11:57.040Z,58.70
2022-11-05T20:14:28.342Z,74.18
2022-11-05T20:16:55.161Z,59.65
2022-11-05T20:19:22.973Z,58.40
2022-11-05T20:21:50.119Z,60.13
2022-11-05T20:24:24.355Z,68.88
2022-11-05T20:26:55.053Z,75.00
2022-11-05T20:29:23.119Z,67.65
2022-11-05T20:31:50.402Z,75.72
2022-11-05T20:34:17.241Z,61.72
2022-11-05T20:36:47.026Z,72.30
2022-11-05T20:39:13.852Z,63.03
2022-11-05T20:41:41.885Z,61.42
2022-11-05T20:44:08.930Z,63.75
2022-11-05T20:46:38.860Z,62.75
2022-11-05T20:49:09.223Z,55.88
2022-11-05T20:51:36.164Z,61.28
2022-11-05T20:54:03.084Z,55.03
2022-11-05T20:56:37.392Z,62.00
2022-11-05T20:59:06.699Z,61.00
2022-11-05T21:01:34.502Z,59.78
2022-11-05T21:04:03.094Z,69.65
2022-11-05T21:06:31.642Z,68.18
2022-11-05T21:08:58.741Z,57.13
2022-11-05T21:11:25.566Z,62.85
2022-11-05T21:13:52.404Z,56.10
2022-11-05T21:16:20.141Z,59.72
2022-11-05T21:18:50.595Z,64.38
2022-11-05T21:21:20.416Z,61.92
2022-11-05T21:23:47.657Z,66.88
2022-11-05T21:26:17.079Z,61.83
2022-11-05T21:28:46.229Z,64.85
2022-11-05T21:31:13.083Z,61.50
2022-11-05T21:33:40.070Z,54.30
2022-11-05T21:36:10.028Z,60.42
2022-11-05T21:38:40.239Z,55.30
2022-11-05T21:41:08.606Z,54.88
2022-11-05T21:43:38.207Z,55.05
2022-11-05T21:46:05.384Z,51.60
2022-11-05T21:48:33.086Z,59.47
2022-11-05T21:51:18.513Z,51.92
2022-11-05T21:54:03.776Z,59.28
2022-11-05T21:56:49.450Z,63.67
2022-11-05T21:59:39.735Z,62.10
2022-11-05T22:02:08.759Z,59.08
2022-11-05T22:04:38.091Z,61.55
2022-11-05T22:07:07.121Z,57.67
2022-11-05T22:09:34.282Z,57.67
2022-11-05T22:12:02.273Z,65.82
2022-11-05T22:14:29.251Z,74.40
2022-11-05T22:16:56.461Z,76.97
2022-11-05T22:19:25.157Z,71.10
2022-11-05T22:21:52.066Z,75.05
2022-11-05T22:24:19.301Z,79.47
2022-11-05T22:26:46.716Z,75.90
2022-11-05T22:29:13.937Z,73.97
2022-11-05T22:31:40.776Z,57.05
2022-11-05T22:34:08.024Z,67.60
2022-11-05T22:36:35.232Z,65.75
2022-11-05T22:39:03.201Z,59.30
2022-11-05T22:41:30.027Z,63.67
2022-11-05T22:43:57.627Z,66.07
2022-11-05T22:46:25.907Z,61.03
2022-11-05T22:48:53.662Z,55.25
2022-11-05T22:51:26.947Z,62.35
2022-11-05T22:53:55.019Z,58.33
2022-11-05T22:56:23.801Z,59.00
2022-11-05T22:58:50.948Z,54.92
2022-11-05T23:01:18.885Z,58.80
2022-11-05T23:03:47.411Z,59.95
2022-11-05T23:06:38.992Z,52.25
2022-11-05T23:09:30.510Z,54.63
2022-11-05T23:12:00.268Z,57.15
2022-11-05T23:14:27.531Z,60.95
2022-11-05T23:17:13.129Z,58.15
2022-11-05T23:19:59.235Z,61.47
2022-11-05T23:22:47.817Z,61.10
2022-11-05T23:25:17.687Z,58.15
2022-11-05T23:27:46.963Z,54.90
2022-11-05T23:30:24.122Z,49.17
2022-11-05T23:32:51.658Z,54.50
2022-11-05T23:35:38.778Z,60.03
2022-11-05T23:38:24.314Z,56.15
2022-11-05T23:41:09.391Z,50.65
2022-11-05T23:43:54.355Z,58.13
2022-11-05T23:46:39.801Z,61.45
2022-11-05T23:49:06.412Z,58.22
2022-11-05T23:51:33.014Z,55.47
2022-11-05T23:53:59.569Z,49.47
2022-11-05T23:56:26.129Z,48.17
2022-11-05T23:58:52.724Z,48.75
